Time;durP1;ratioP1;P1;durP2;ratioP2;P2;SDS_P1;SDS_P2;PMS_P1;PMS_P2;Temp;Humidity;BMP_temperature;BMP_pressure;BME280_temperature;BME280_humidity;BME280_pressure;Samples;Min_cycle;Max_cycle;Signal;HPM_P1;HPM_P2
2023/04/03 00:02:06;;;;;;;;;;;;;;;6.00;100.00;96719.73;110485;1241;69629;-83
2023/04/03 00:04:36;;;;;;;;;;;;;;;5.99;100.00;96714.44;110535;1241;59675;-83
2023/04/03 00:07:05;;;;;;;;;;;;;;;6.00;100.00;96710.95;110557;1238;59745;-83
2023/04/03 00:09:35;;;;;;;;;;;;;;;6.01;100.00;96708.27;110521;1238;70602;-83
2023/04/03 00:12:05;;;;;;;;;;;;;;;6.03;100.00;96708.50;110539;1241;69197;-83
2023/04/03 00:14:34;;;;;;;;;;;;;;;6.05;100.00;96709.41;110566;1241;69280;-83
2023/04/03 00:17:05;;;;;;;;;;;;;;;6.06;100.00;96702.43;110465;1242;59731;-82
2023/04/03 00:19:35;;;;;;;;;;;;;;;6.07;100.00;96701.15;110397;1241;59694;-85
2023/04/03 00:22:07;;;;;;;;;;;;;;;6.09;100.00;96697.20;110512;1241;71540;-85
2023/04/03 00:24:37;;;;;;;;;;;;;;;6.11;100.00;96701.23;110420;1241;69113;-84
2023/04/03 00:27:08;;;;;;;;;;;;;;;6.13;100.00;96704.71;110505;1241;69303;-84
2023/04/03 00:29:38;;;;;;;;;;;;;;;6.14;100.00;96704.47;110531;1242;59738;-82
2023/04/03 00:32:09;;;;;;;;;;;;;;;6.15;100.00;96704.96;110652;1238;59720;-84
2023/04/03 00:34:40;;;;;;;;;;;;;;;6.15;100.00;96707.89;110732;1239;71254;-82
2023/04/03 00:37:11;;;;;;;;;;;;;;;6.15;100.00;96710.14;110321;1242;68469;-82
2023/04/03 00:39:41;;;;;;;;;;;;;;;6.11;100.00;96713.13;110395;1241;69296;-82
2023/04/03 00:42:11;;;;;;;;;;;;;;;6.09;100.00;96708.61;110588;1239;59751;-82
2023/04/03 00:44:41;;;;;;;;;;;;;;;6.07;100.00;96713.55;110557;1240;59718;-82
2023/04/03 00:47:15;;;;;;;;;;;;;;;6.05;100.00;96712.52;110591;1238;71379;-82
2023/04/03 00:49:45;;;;;;;;;;;;;;;6.00;100.00;96708.36;110637;1241;69876;-83
2023/04/03 00:52:17;;;;;;;;;;;;;;;5.97;100.00;96705.11;110625;1240;69275;-82
2023/04/03 00:54:49;;;;;;;;;;;;;;;5.94;100.00;96708.22;110493;1241;59686;-84
2023/04/03 00:57:18;;;;;;;;;;;;;;;5.91;100.00;96710.66;110599;1240;59728;-84
2023/04/03 00:59:55;;;;;;;;;;;;;;;5.89;100.00;96713.56;110328;1238;71369;-82
2023/04/03 01:02:24;;;;;;;;;;;;;;;5.87;100.00;96714.19;110465;1241;69256;-85
2023/04/03 01:04:54;;;;;;;;;;;;;;;5.87;100.00;96717.48;110227;1245;69287;-83
2023/04/03 01:07:28;;;;;;;;;;;;;;;5.86;100.00;96713.76;110342;1241;59750;-85
2023/04/03 01:10:00;;;;;;;;;;;;;;;5.87;100.00;96714.91;110229;1244;59694;-82
2023/04/03 01:12:31;;;;;;;;;;;;;;;5.88;100.00;96715.33;110549;1240;71846;-84
2023/04/03 01:15:07;;;;;;;;;;;;;;;5.90;100.00;96715.20;110573;1241;68279;-83
2023/04/03 01:17:41;;;;;;;;;;;;;;;5.93;100.00;96714.16;110455;1241;69820;-83
2023/04/03 01:20:11;;;;;;;;;;;;;;;5.96;100.00;96715.56;110567;1240;59757;-83
2023/04/03 01:22:48;;;;;;;;;;;;;;;5.97;100.00;96715.82;110483;1242;59684;-83
2023/04/03 01:25:18;;;;;;;;;;;;;;;5.98;100.00;96718.48;110325;1242;71322;-83
2023/04/03 01:27:49;;;;;;;;;;;;;;;5.97;100.00;96713.91;110152;1241;68683;-83
2023/04/03 01:30:20;;;;;;;;;;;;;;;5.98;100.00;96715.26;110349;1242;67477;-83
2023/04/03 01:32:50;;;;;;;;;;;;;;;5.96;100.00;96716.21;110354;1241;59636;-83
2023/04/03 01:35:22;;;;;;;;;;;;;;;5.96;100.00;96717.42;110317;1242;59735;-84
2023/04/03 01:37:53;;;;;;;;;;;;;;;5.97;100.00;96716.13;110288;1240;71242;-83
2023/04/03 01:40:23;;;;;;;;;;;;;;;6.00;100.00;96718.39;110207;1241;69437;-84
2023/04/03 01:42:53;;;;;;;;;;;;;;;6.02;100.00;96720.33;110167;1245;69867;-83
2023/04/03 01:45:23;;;;;;;;;;;;;;;6.03;100.00;96722.13;110216;1242;59723;-83
2023/04/03 01:47:53;;;;;;;;;;;;;;;6.05;100.00;96722.69;110398;1241;59663;-83
2023/04/03 01:50:25;;;;;;;;;;;;;;;6.06;100.00;96726.45;110218;1240;71752;-84
2023/04/03 01:52:55;;;;;;;;;;;;;;;6.07;100.00;96723.98;110581;1241;68963;-84
2023/04/03 01:55:25;;;;;;;;;;;;;;;6.06;100.00;96726.13;110475;1242;68685;-83
2023/04/03 01:57:55;;;;;;;;;;;;;;;6.04;100.00;96732.16;110258;1242;60136;-84
2023/04/03 02:00:26;;;;;;;;;;;;;;;6.02;100.00;96731.75;110508;1241;59692;-84
2023/04/03 02:02:56;;;;;;;;;;;;;;;5.99;100.00;96731.39;110473;1242;71211;-85
2023/04/03 02:05:27;;;;;;;;;;;;;;;6.01;100.00;96734.08;110267;1242;69309;-85
2023/04/03 02:07:57;;;;;;;;;;;;;;;6.02;100.00;96733.09;110406;1242;69904;-84
2023/04/03 02:10:27;;;;;;;;;;;;;;;6.04;100.00;96734.52;110365;1242;59696;-83
2023/04/03 02:12:58;;;;;;;;;;;;;;;6.05;100.00;96731.04;110498;1242;59641;-85
2023/04/03 02:15:29;;;;;;;;;;;;;;;6.06;100.00;96730.76;110344;1247;70631;-84
2023/04/03 02:18:00;;;;;;;;;;;;;;;6.07;100.00;96730.73;110425;1241;68288;-84
2023/04/03 02:20:36;;;;;;;;;;;;;;;6.08;100.00;96730.09;110432;1240;68479;-84
2023/04/03 02:23:07;;;;;;;;;;;;;;;6.10;100.00;96732.91;110361;1242;59637;-84
2023/04/03 02:25:37;;;;;;;;;;;;;;;6.13;100.00;96731.73;110347;1242;59604;-82
2023/04/03 02:28:08;;;;;;;;;;;;;;;6.13;100.00;96730.30;110137;1243;71945;-82
2023/04/03 02:30:42;;;;;;;;;;;;;;;6.14;100.00;96727.87;110132;1240;68550;-85
2023/04/03 02:33:13;;;;;;;;;;;;;;;6.16;100.00;96729.67;110274;1242;69715;-83
2023/04/03 02:35:52;;;;;;;;;;;;;;;6.17;100.00;96726.97;110162;1241;59683;-82
2023/04/03 02:38:25;;;;;;;;;;;;;;;6.16;100.00;96728.40;110325;1241;59814;-83
2023/04/03 02:41:03;;;;;;;;;;;;;;;6.17;100.00;96724.92;110204;1245;70630;-83
2023/04/03 02:43:33;;;;;;;;;;;;;;;6.15;100.00;96729.16;110283;1242;69171;-83
2023/04/03 02:46:05;;;;;;;;;;;;;;;6.15;100.00;96723.45;110169;1244;69194;-83
2023/04/03 02:48:37;;;;;;;;;;;;;;;6.15;100.00;96724.01;110133;1241;59720;-82
2023/04/03 02:51:07;;;;;;;;;;;;;;;6.15;100.00;96728.69;110170;1241;59728;-83
2023/04/03 02:53:37;;;;;;;;;;;;;;;6.16;100.00;96731.71;110315;1242;70713;-83
2023/04/03 02:56:12;;;;;;;;;;;;;;;6.17;100.00;96739.63;110254;1245;69051;-83
2023/04/03 02:58:44;;;;;;;;;;;;;;;6.18;100.00;96740.04;110272;1241;67523;-83
2023/04/03 03:01:14;;;;;;;;;;;;;;;6.17;100.00;96745.14;110178;1245;59700;-83
2023/04/03 03:03:45;;;;;;;;;;;;;;;6.07;100.00;96748.85;110334;1241;59700;-83
2023/04/03 03:06:16;;;;;;;;;;;;;;;6.05;100.00;96748.52;110513;1241;71456;-83
2023/04/03 03:08:46;;;;;;;;;;;;;;;6.04;100.00;96750.65;110507;1242;69046;-83
2023/04/03 03:11:17;;;;;;;;;;;;;;;6.04;100.00;96745.45;110428;1241;69303;-83
2023/04/03 03:13:48;;;;;;;;;;;;;;;6.06;100.00;96745.70;110494;1241;59679;-83
2023/04/03 03:16:19;;;;;;;;;;;;;;;6.08;100.00;96743.11;110536;1238;59692;-83
2023/04/03 03:18:49;;;;;;;;;;;;;;;6.11;100.00;96745.17;110603;1238;70652;-83
2023/04/03 03:21:20;;;;;;;;;;;;;;;6.12;100.00;96743.33;110292;1242;69228;-83
2023/04/03 03:23:49;;;;;;;;;;;;;;;6.15;100.00;96744.20;110235;1244;69217;-83
2023/04/03 03:26:19;;;;;;;;;;;;;;;6.19;100.00;96746.77;110410;1240;59777;-83
2023/04/03 03:28:49;;;;;;;;;;;;;;;6.20;100.00;96746.16;110411;1241;59621;-82
2023/04/03 03:31:18;;;;;;;;;;;;;;;6.22;100.00;96746.39;110563;1241;71011;-82
2023/04/03 03:33:48;;;;;;;;;;;;;;;6.24;100.00;96751.61;110462;1241;69656;-82
2023/04/03 03:36:18;;;;;;;;;;;;;;;6.25;100.00;96756.00;110218;1241;69268;-82
2023/04/03 03:38:48;;;;;;;;;;;;;;;6.26;100.00;96757.14;110524;1241;59741;-82
2023/04/03 03:41:17;;;;;;;;;;;;;;;6.27;100.00;96755.52;110202;1244;59693;-82
2023/04/03 03:43:46;;;;;;;;;;;;;;;6.29;100.00;96759.57;110569;1240;71755;-83
2023/04/03 03:46:17;;;;;;;;;;;;;;;6.29;100.00;96761.28;110310;1242;69316;-82
2023/04/03 03:48:48;;;;;;;;;;;;;;;6.30;100.00;96764.02;110484;1242;68348;-82
2023/04/03 03:51:17;;;;;;;;;;;;;;;6.27;100.00;96766.61;110516;1242;59701;-82
2023/04/03 03:53:48;;;;;;;;;;;;;;;6.24;100.00;96768.05;110404;1241;59737;-82
2023/04/03 03:56:20;;;;;;;;;;;;;;;6.20;100.00;96764.52;110407;1242;70570;-84
2023/04/03 03:58:50;;;;;;;;;;;;;;;6.17;100.00;96766.77;110399;1238;69305;-83
2023/04/03 04:01:18;;;;;;;;;;;;;;;6.14;100.00;96765.90;110583;1240;69784;-83
2023/04/03 04:03:49;;;;;;;;;;;;;;;6.14;100.00;96766.23;110675;1238;59809;-83
2023/04/03 04:06:21;;;;;;;;;;;;;;;6.16;100.00;96763.39;110635;1241;59725;-83
2023/04/03 04:08:50;;;;;;;;;;;;;;;6.18;100.00;96765.00;110303;1242;71456;-83
2023/04/03 04:11:21;;;;;;;;;;;;;;;6.19;100.00;96768.73;110638;1242;69866;-83
2023/04/03 04:13:51;;;;;;;;;;;;;;;6.20;100.00;96768.46;110311;1242;69140;-80
2023/04/03 04:16:22;;;;;;;;;;;;;;;6.23;100.00;96773.29;110450;1240;59734;-79
2023/04/03 04:18:50;;;;;;;;;;;;;;;6.24;100.00;96774.27;110298;1242;59776;-82
2023/04/03 04:21:20;;;;;;;;;;;;;;;6.26;100.00;96774.65;110611;1242;70232;-83
2023/04/03 04:23:49;;;;;;;;;;;;;;;6.27;100.00;96772.35;110339;1239;68559;-83
2023/04/03 04:26:21;;;;;;;;;;;;;;;6.28;100.00;96775.40;110230;1243;68123;-83
2023/04/03 04:28:50;;;;;;;;;;;;;;;6.29;100.00;96780.00;110207;1242;59691;-81
2023/04/03 04:31:20;;;;;;;;;;;;;;;6.30;100.00;96778.17;110582;1242;59676;-83
2023/04/03 04:33:49;;;;;;;;;;;;;;;6.32;100.00;96775.64;110373;1242;71430;-82
2023/04/03 04:36:20;;;;;;;;;;;;;;;6.35;100.00;96781.86;110513;1242;69248;-81
2023/04/03 04:38:52;;;;;;;;;;;;;;;6.36;100.00;96777.27;110312;1248;69281;-83
2023/04/03 04:41:23;;;;;;;;;;;;;;;6.39;100.00;96775.20;110197;1242;59732;-82
2023/04/03 04:43:53;;;;;;;;;;;;;;;6.41;100.00;96775.90;110254;1242;59658;-83
2023/04/03 04:46:22;;;;;;;;;;;;;;;6.42;100.00;96774.43;110472;1241;71367;-82
2023/04/03 04:48:54;;;;;;;;;;;;;;;6.40;100.00;96768.70;110659;1240;69426;-82
2023/04/03 04:51:25;;;;;;;;;;;;;;;6.40;100.00;96768.36;110331;1242;68381;-82
2023/04/03 04:53:58;;;;;;;;;;;;;;;6.39;100.00;96770.33;110465;1242;59740;-75
2023/04/03 04:56:28;;;;;;;;;;;;;;;6.40;100.00;96771.84;110306;1242;59751;-75
2023/04/03 04:58:58;;;;;;;;;;;;;;;6.39;100.00;96770.66;110272;1245;71418;-75
2023/04/03 05:01:28;;;;;;;;;;;;;;;6.36;100.00;96769.98;110665;1242;68432;-75
2023/04/03 05:04:17;;;;;;;;;;;;;;;6.34;100.00;96770.85;110654;1240;68318;-75
2023/04/03 05:06:49;;;;;;;;;;;;;;;6.32;100.00;96778.60;110333;1238;59713;-75
2023/04/03 05:09:21;;;;;;;;;;;;;;;6.28;100.00;96782.61;110602;1239;59666;-75
2023/04/03 05:11:50;;;;;;;;;;;;;;;6.26;100.00;96785.20;110670;1241;71327;-75
2023/04/03 05:14:21;;;;;;;;;;;;;;;6.24;100.00;96784.33;110304;1242;69100;-75
2023/04/03 05:16:53;;;;;;;;;;;;;;;6.21;100.00;96790.55;110624;1241;69742;-75
2023/04/03 05:19:24;;;;;;;;;;;;;;;6.19;100.00;96786.50;110134;1242;572868;-76
2023/04/03 05:21:53;;;;;;;;;;;;;;;6.15;100.00;96785.05;110343;1242;59645;-75
2023/04/03 05:24:22;;;;;;;;;;;;;;;6.14;100.00;96786.67;110466;1238;70480;-75
2023/04/03 05:26:50;;;;;;;;;;;;;;;6.12;100.00;96791.44;110323;1242;69859;-76
2023/04/03 05:29:20;;;;;;;;;;;;;;;6.12;100.00;96795.06;110320;1242;69686;-76
2023/04/03 05:31:50;;;;;;;;;;;;;;;6.12;100.00;96795.27;110314;1243;59685;-76
2023/04/03 05:34:19;;;;;;;;;;;;;;;6.12;100.00;96801.15;110606;1241;59672;-76
2023/04/03 05:36:50;;;;;;;;;;;;;;;6.09;100.00;96804.64;110606;1242;72421;-76
2023/04/03 05:39:19;;;;;;;;;;;;;;;6.06;100.00;96806.39;110614;1241;68581;-76
2023/04/03 05:41:48;;;;;;;;;;;;;;;6.00;100.00;96808.12;110594;1242;68677;-76
2023/04/03 05:44:17;;;;;;;;;;;;;;;5.99;100.00;96805.29;110523;1240;59734;-75
2023/04/03 05:46:46;;;;;;;;;;;;;;;5.97;100.00;96805.11;110514;1242;59749;-76
2023/04/03 05:49:15;;;;;;;;;;;;;;;5.93;100.00;96801.88;110483;1242;71656;-77
2023/04/03 05:51:45;;;;;;;;;;;;;;;5.92;100.00;96801.25;110583;1242;69262;-76
2023/04/03 05:54:26;;;;;;;;;;;;;;;5.92;100.00;96806.60;110531;1241;68799;-76
2023/04/03 05:57:11;;;;;;;;;;;;;;;5.93;100.00;96808.61;110230;1244;59715;-75
2023/04/03 05:59:45;;;;;;;;;;;;;;;5.94;100.00;96809.62;110362;1242;59711;-76
2023/04/03 06:02:16;;;;;;;;;;;;;;;5.84;100.00;96810.50;110389;1242;71848;-76
2023/04/03 06:04:47;;;;;;;;;;;;;;;5.81;100.00;96809.33;110328;1242;69041;-76
2023/04/03 06:07:18;;;;;;;;;;;;;;;5.85;100.00;96807.02;110630;1240;69115;-77
2023/04/03 06:09:47;;;;;;;;;;;;;;;5.84;100.00;96804.30;110636;1242;59685;-76
2023/04/03 06:12:17;;;;;;;;;;;;;;;5.89;100.00;96806.25;110316;1242;59651;-77
2023/04/03 06:14:46;;;;;;;;;;;;;;;5.95;100.00;96802.23;110256;1245;71950;-76
2023/04/03 06:17:17;;;;;;;;;;;;;;;6.08;100.00;96801.94;110637;1241;69799;-78
2023/04/03 06:19:46;;;;;;;;;;;;;;;6.22;100.00;96798.97;110359;1242;69310;-76
2023/04/03 06:22:16;;;;;;;;;;;;;;;6.36;100.00;96803.77;110567;1240;59734;-75
2023/04/03 06:24:46;;;;;;;;;;;;;;;6.51;100.00;96805.05;110181;1243;59678;-76
2023/04/03 06:27:15;;;;;;;;;;;;;;;6.62;100.00;96813.45;110646;1241;71750;-75
2023/04/03 06:29:45;;;;;;;;;;;;;;;6.74;100.00;96817.02;110598;1241;68492;-73
2023/04/03 06:32:13;;;;;;;;;;;;;;;6.78;100.00;96818.95;110454;1244;69288;-78
2023/04/03 06:34:42;;;;;;;;;;;;;;;6.80;100.00;96820.77;110629;1241;59731;-83
2023/04/03 06:37:17;;;;;;;;;;;;;;;6.80;100.00;96823.52;110636;1242;59670;-80
2023/04/03 06:39:45;;;;;;;;;;;;;;;6.78;100.00;96828.67;110734;1240;71810;-79
2023/04/03 06:42:16;;;;;;;;;;;;;;;6.73;100.00;96833.31;110731;1242;69903;-78
2023/04/03 06:44:54;;;;;;;;;;;;;;;6.65;100.00;96839.61;110671;1241;70272;-80
2023/04/03 06:47:22;;;;;;;;;;;;;;;6.50;100.00;96843.48;110588;1241;59691;-80
2023/04/03 06:49:52;;;;;;;;;;;;;;;6.39;100.00;96849.78;110552;1241;59637;-79
2023/04/03 06:52:22;;;;;;;;;;;;;;;6.17;100.00;96853.11;110500;1241;71329;-78
2023/04/03 06:54:56;;;;;;;;;;;;;;;6.14;100.00;96849.83;110700;1241;68340;-78
2023/04/03 06:57:26;;;;;;;;;;;;;;;6.13;100.00;96854.02;110589;1238;69253;-79
2023/04/03 06:59:55;;;;;;;;;;;;;;;6.12;100.00;96853.76;110552;1242;59686;-82
2023/04/03 07:02:23;;;;;;;;;;;;;;;6.15;100.00;96856.34;110568;1241;59670;-79
2023/04/03 07:04:52;;;;;;;;;;;;;;;6.20;100.00;96856.89;110473;1240;72018;-79
2023/04/03 07:07:22;;;;;;;;;;;;;;;6.24;100.00;96864.10;110680;1240;68842;-80
2023/04/03 07:09:50;;;;;;;;;;;;;;;6.25;100.00;96866.58;110568;1241;69878;-79
2023/04/03 07:12:21;;;;;;;;;;;;;;;6.26;100.00;96867.90;110439;1241;59721;-81
2023/04/03 07:14:50;;;;;;;;;;;;;;;6.30;100.00;96869.55;110691;1242;59708;-79
2023/04/03 07:17:19;;;;;;;;;;;;;;;6.35;100.00;96870.29;110537;1240;70559;-77
2023/04/03 07:19:48;;;;;;;;;;;;;;;6.41;100.00;96873.91;110403;1242;69642;-80
2023/04/03 07:22:17;;;;;;;;;;;;;;;6.43;100.00;96875.13;110448;1243;68547;-77
2023/04/03 07:24:46;;;;;;;;;;;;;;;6.47;100.00;96877.10;110457;1242;59728;-77
2023/04/03 07:27:14;;;;;;;;;;;;;;;6.49;100.00;96877.52;110495;1240;59741;-79
2023/04/03 07:29:44;;;;;;;;;;;;;;;6.54;100.00;96878.73;110576;1242;72037;-74
2023/04/03 07:32:18;;;;;;;;;;;;;;;6.54;100.00;96884.42;110429;1239;69195;-79
2023/04/03 07:34:47;;;;;;;;;;;;;;;6.58;100.00;96885.90;110520;1242;68551;-79
2023/04/03 07:37:17;;;;;;;;;;;;;;;6.56;100.00;96883.48;110362;1244;59670;-79
2023/04/03 07:39:48;;;;;;;;;;;;;;;6.55;100.00;96889.02;110385;1242;59763;-80
2023/04/03 07:42:17;;;;;;;;;;;;;;;6.58;100.00;96887.83;110658;1242;72397;-79
2023/04/03 07:44:48;;;;;;;;;;;;;;;6.57;100.00;96890.34;110662;1242;68571;-80
2023/04/03 07:47:17;;;;;;;;;;;;;;;6.66;100.00;96893.05;110632;1241;69261;-80
2023/04/03 07:49:46;;;;;;;;;;;;;;;6.73;100.00;96896.37;110667;1241;59669;-80
2023/04/03 07:52:15;;;;;;;;;;;;;;;6.86;100.00;96896.02;110540;1242;59739;-80
2023/04/03 07:54:44;;;;;;;;;;;;;;;6.99;100.00;96902.27;110333;1242;71837;-80
2023/04/03 07:57:13;;;;;;;;;;;;;;;7.12;100.00;96906.77;110537;1242;68255;-80
2023/04/03 07:59:42;;;;;;;;;;;;;;;7.26;100.00;96906.92;110491;1241;69723;-80
2023/04/03 08:02:12;;;;;;;;;;;;;;;7.38;100.00;96908.19;110677;1242;59758;-81
2023/04/03 08:04:41;;;;;;;;;;;;;;;7.48;100.00;96909.04;110667;1242;59681;-80
2023/04/03 08:07:09;;;;;;;;;;;;;;;7.57;100.00;96910.80;110560;1242;71465;-79
2023/04/03 08:09:38;;;;;;;;;;;;;;;7.65;100.00;96911.85;110416;1242;69811;-78
2023/04/03 08:12:07;;;;;;;;;;;;;;;7.73;100.00;96914.27;110469;1240;70173;-80
2023/04/03 08:14:35;;;;;;;;;;;;;;;7.74;99.34;96920.63;110336;1241;60092;-79
2023/04/03 08:17:05;;;;;;;;;;;;;;;7.61;98.02;96924.09;110464;1241;59691;-80
2023/04/03 08:19:34;;;;;;;;;;;;;;;7.57;97.90;96928.17;110372;1242;71882;-80
2023/04/03 08:22:04;;;;;;;;;;;;;;;7.54;97.96;96929.59;110360;1240;68664;-80
2023/04/03 08:24:33;;;;;;;;;;;;;;;7.54;98.70;96928.39;110495;1241;69257;-80
2023/04/03 08:27:03;;;;;;;;;;;;;;;7.68;98.18;96927.81;110396;1243;59753;-80
2023/04/03 08:29:32;;;;;;;;;;;;;;;7.80;98.59;96929.23;110484;1241;59651;-80
2023/04/03 08:32:01;;;;;;;;;;;;;;;7.72;97.24;96933.21;110447;1242;71354;-80
2023/04/03 08:34:30;;;;;;;;;;;;;;;7.76;97.45;96934.84;110561;1242;69909;-80
2023/04/03 08:36:59;;;;;;;;;;;;;;;7.75;96.48;96934.61;110546;1242;68883;-80
2023/04/03 08:39:28;;;;;;;;;;;;;;;7.91;97.66;96935.92;110529;1241;59676;-80
2023/04/03 08:42:00;;;;;;;;;;;;;;;8.06;97.73;96937.47;110629;1241;59750;-80
2023/04/03 08:44:29;;;;;;;;;;;;;;;8.13;95.46;96935.40;110618;1242;71275;-80
2023/04/03 08:47:01;;;;;;;;;;;;;;;8.27;97.13;96937.17;110530;1242;69029;-80
2023/04/03 08:49:32;;;;;;;;;;;;;;;8.40;97.13;96937.17;110380;1242;67540;-80
2023/04/03 08:52:05;;;;;;;;;;;;;;;8.46;94.93;96934.84;110365;1239;59730;-80
2023/04/03 08:54:41;;;;;;;;;;;;;;;8.50;96.41;96934.36;110291;1243;59748;-80
2023/04/03 08:57:12;;;;;;;;;;;;;;;8.59;97.35;96931.32;110437;1242;71980;-80
2023/04/03 08:59:40;;;;;;;;;;;;;;;8.73;94.33;96932.69;110461;1241;68312;-79
2023/04/03 09:02:32;;;;;;;;;;;;;;;8.81;91.87;96932.61;110334;1241;68586;-80
2023/04/03 09:05:02;;;;;;;;;;;;;;;9.00;92.54;96934.52;110394;1241;59679;-81
2023/04/03 09:07:36;;;;;;;;;;;;;;;9.28;94.13;96936.07;110316;1241;59630;-81
2023/04/03 09:10:05;;;;;;;;;;;;;;;9.55;94.22;96937.53;110583;1241;71221;-81
2023/04/03 09:12:39;;;;;;;;;;;;;;;9.84;94.86;96942.81;110506;1242;69859;-81
2023/04/03 09:15:21;;;;;;;;;;;;;;;9.85;87.18;96947.63;110601;1242;69304;-81
2023/04/03 09:18:11;;;;;;;;;;;;;;;9.63;84.83;96950.48;110629;1242;59742;-81
2023/04/03 09:20:45;;;;;;;;;;;;;;;9.51;84.41;96950.33;110517;1242;59637;-81
2023/04/03 09:23:18;;;;;;;;;;;;;;;9.30;84.95;96953.71;110605;1241;71216;-79
2023/04/03 09:25:47;;;;;;;;;;;;;;;9.28;86.07;96953.46;110448;1239;68548;-82
2023/04/03 09:28:16;;;;;;;;;;;;;;;9.18;86.35;96955.44;110434;1242;70259;-81
2023/04/03 09:30:47;;;;;;;;;;;;;;;9.18;87.57;96956.52;110556;1241;59697;-81
2023/04/03 09:33:16;;;;;;;;;;;;;;;9.16;87.81;96950.91;110475;1242;59638;-81
2023/04/03 09:35:45;;;;;;;;;;;;;;;9.27;88.59;96955.69;110342;1242;72007;-80
2023/04/03 09:38:17;;;;;;;;;;;;;;;9.37;87.41;96955.57;110619;1242;69644;-81
2023/04/03 09:41:01;;;;;;;;;;;;;;;9.34;85.76;96957.20;110514;1241;68506;-81
2023/04/03 09:43:31;;;;;;;;;;;;;;;9.43;86.61;96961.58;110467;1241;59660;-81
2023/04/03 09:46:20;;;;;;;;;;;;;;;9.48;86.46;96968.34;110473;1242;59722;-81
2023/04/03 09:49:11;;;;;;;;;;;;;;;9.59;86.79;96969.23;110390;1242;71996;-81
2023/04/03 09:51:41;;;;;;;;;;;;;;;9.49;85.09;96970.33;110576;1242;69294;-82
2023/04/03 09:54:26;;;;;;;;;;;;;;;9.42;85.64;96968.62;110363;1242;69277;-82
2023/04/03 09:56:56;;;;;;;;;;;;;;;9.43;86.15;96970.60;110331;1242;59734;-81
2023/04/03 09:59:24;;;;;;;;;;;;;;;9.49;86.28;96972.62;110383;1241;59602;-81
2023/04/03 10:01:58;;;;;;;;;;;;;;;9.53;87.50;96972.98;110325;1244;71650;-80
2023/04/03 10:04:37;;;;;;;;;;;;;;;9.55;86.71;96973.37;110372;1241;69832;-79
2023/04/03 10:07:26;;;;;;;;;;;;;;;9.57;86.41;96969.95;110184;1245;69584;-81
2023/04/03 10:09:59;;;;;;;;;;;;;;;9.55;87.82;96968.14;110408;1242;60217;-80
2023/04/03 10:12:28;;;;;;;;;;;;;;;9.58;88.46;96960.81;110556;1242;59675;-80
2023/04/03 10:14:58;;;;;;;;;;;;;;;9.63;86.40;96960.91;110552;1242;71940;-79
2023/04/03 10:17:36;;;;;;;;;;;;;;;9.66;87.79;96961.38;110432;1242;70055;-80
2023/04/03 10:20:07;;;;;;;;;;;;;;;9.76;86.42;96958.75;110407;1243;69227;-81
2023/04/03 10:22:45;;;;;;;;;;;;;;;9.84;85.73;96962.27;110574;1241;59751;-80
2023/04/03 10:25:23;;;;;;;;;;;;;;;9.83;86.22;96961.65;110498;1241;59711;-81
2023/04/03 10:28:07;;;;;;;;;;;;;;;9.90;86.16;96958.34;110283;1244;71200;-80
2023/04/03 10:30:35;;;;;;;;;;;;;;;10.07;86.03;96956.66;110446;1240;68692;-81
2023/04/03 10:33:20;;;;;;;;;;;;;;;10.10;83.53;96957.14;110441;1243;69751;-80
2023/04/03 10:35:58;;;;;;;;;;;;;;;10.06;82.38;96957.47;110671;1243;59663;-79
2023/04/03 10:38:40;;;;;;;;;;;;;;;10.07;83.30;96956.52;110362;1242;59631;-80
2023/04/03 10:41:29;;;;;;;;;;;;;;;10.02;82.18;96956.19;110350;1242;70628;-80
2023/04/03 10:44:14;;;;;;;;;;;;;;;10.17;84.14;96951.89;110471;1241;68695;-81
2023/04/03 10:46:49;;;;;;;;;;;;;;;10.17;81.87;96945.64;110461;1248;69072;-79
2023/04/03 10:49:25;;;;;;;;;;;;;;;9.92;82.42;96943.91;110524;1242;60223;-81
2023/04/03 10:51:54;;;;;;;;;;;;;;;9.85;83.35;96947.39;110354;1241;59663;-81
2023/04/03 10:54:40;;;;;;;;;;;;;;;9.93;82.88;96945.25;110474;1242;71322;-79
2023/04/03 10:57:24;;;;;;;;;;;;;;;10.05;83.26;96939.59;110342;1242;69306;-80
2023/04/03 11:00:09;;;;;;;;;;;;;;;10.32;83.90;96933.02;110341;1241;69097;-81
2023/04/03 11:02:45;;;;;;;;;;;;;;;10.28;83.96;96933.46;110368;1241;59707;-80
2023/04/03 11:05:21;;;;;;;;;;;;;;;10.46;83.34;96936.53;110398;1242;59665;-82
2023/04/03 11:07:53;;;;;;;;;;;;;;;10.70;83.81;96936.02;110348;1242;70977;-80
2023/04/03 11:10:26;;;;;;;;;;;;;;;11.03;82.29;96937.66;110368;1244;68384;-79
2023/04/03 11:13:15;;;;;;;;;;;;;;;11.47;80.19;96925.46;110429;1242;68311;-80
2023/04/03 11:15:46;;;;;;;;;;;;;;;12.18;76.39;96918.36;110548;1242;59785;-80
2023/04/03 11:18:17;;;;;;;;;;;;;;;12.66;76.35;96910.64;110323;1242;60149;-80
2023/04/03 11:21:05;;;;;;;;;;;;;;;12.84;73.59;96910.65;110495;1242;71346;-78
2023/04/03 11:23:36;;;;;;;;;;;;;;;13.02;70.99;96907.80;110370;1241;68424;-81
2023/04/03 11:26:22;;;;;;;;;;;;;;;13.05;69.10;96903.86;110401;1242;69690;-82
2023/04/03 11:28:52;;;;;;;;;;;;;;;13.20;69.37;96903.54;110157;1245;59769;-82
2023/04/03 11:31:41;;;;;;;;;;;;;;;13.30;69.01;96898.95;110506;1241;59650;-82
2023/04/03 11:34:20;;;;;;;;;;;;;;;13.48;69.68;96896.94;110262;1246;71204;-79
2023/04/03 11:36:50;;;;;;;;;;;;;;;13.46;67.71;96895.02;110545;1242;68647;-81
2023/04/03 11:39:22;;;;;;;;;;;;;;;13.25;67.25;96894.55;110331;1239;68317;-81
2023/04/03 11:41:52;;;;;;;;;;;;;;;13.18;67.31;96896.55;110413;1241;59744;-82
2023/04/03 11:44:38;;;;;;;;;;;;;;;12.95;67.56;96897.59;110527;1242;59596;-80
2023/04/03 11:47:11;;;;;;;;;;;;;;;12.91;68.57;96897.61;110553;1241;70452;-81
2023/04/03 11:50:00;;;;;;;;;;;;;;;13.05;67.07;96896.20;110574;1242;69842;-80
2023/04/03 11:52:38;;;;;;;;;;;;;;;12.66;66.32;96894.07;110557;1242;69256;-80
2023/04/03 11:55:20;;;;;;;;;;;;;;;12.70;66.94;96894.45;110529;1241;59702;-81
2023/04/03 11:57:53;;;;;;;;;;;;;;;12.59;68.61;96891.23;110591;1242;59729;-80
2023/04/03 12:00:40;;;;;;;;;;;;;;;12.44;67.95;96887.14;110539;1240;71297;-80
2023/04/03 12:03:28;;;;;;;;;;;;;;;12.78;68.87;96883.71;110525;1242;69893;-82
2023/04/03 12:06:04;;;;;;;;;;;;;;;14.00;67.06;96877.75;110302;1242;68224;-81
2023/04/03 12:08:32;;;;;;;;;;;;;;;15.00;64.18;96875.87;110417;1241;59734;-81
2023/04/03 12:11:10;;;;;;;;;;;;;;;15.20;62.21;96873.61;110538;1243;59681;-81
2023/04/03 12:13:56;;;;;;;;;;;;;;;15.28;60.32;96872.95;110641;1242;72051;-81
2023/04/03 12:16:37;;;;;;;;;;;;;;;15.21;59.43;96872.01;110585;1242;69268;-81
2023/04/03 12:19:18;;;;;;;;;;;;;;;14.81;60.26;96870.23;110503;1242;69313;-83
2023/04/03 12:21:57;;;;;;;;;;;;;;;14.53;58.96;96867.06;110547;1244;59744;-82
2023/04/03 12:24:28;;;;;;;;;;;;;;;14.26;60.15;96869.04;110511;1240;59708;-81
2023/04/03 12:26:57;;;;;;;;;;;;;;;13.95;60.74;96867.30;110602;1242;70451;-80
2023/04/03 12:29:34;;;;;;;;;;;;;;;13.74;62.01;96865.31;110507;1241;69101;-80
2023/04/03 12:32:13;;;;;;;;;;;;;;;13.60;62.39;96862.90;110598;1241;69616;-80
2023/04/03 12:34:42;;;;;;;;;;;;;;;13.60;62.19;96862.39;110569;1241;59744;-80
2023/04/03 12:37:24;;;;;;;;;;;;;;;13.55;62.20;96858.86;110673;1242;59638;-80
2023/04/03 12:40:18;;;;;;;;;;;;;;;13.42;62.71;96856.52;110567;1242;71244;-81
2023/04/03 12:43:19;;;;;;;;;;;;;;;13.36;63.49;96849.42;110588;1241;69406;-81
2023/04/03 12:45:52;;;;;;;;;;;;;;;13.28;63.23;96843.16;109950;1242;69900;-81
2023/04/03 12:48:25;;;;;;;;;;;;;;;13.23;64.05;96838.33;110503;1242;59686;-79
2023/04/03 12:50:54;;;;;;;;;;;;;;;13.48;64.09;96835.85;110525;1244;59689;-81
2023/04/03 12:53:26;;;;;;;;;;;;;;;14.25;62.72;96836.59;110291;1242;71174;-79
2023/04/03 12:55:56;;;;;;;;;;;;;;;15.04;62.59;96832.00;110386;1242;69446;-80
2023/04/03 12:58:26;;;;;;;;;;;;;;;15.30;60.60;96832.23;110516;1242;68903;-80
2023/04/03 13:01:02;;;;;;;;;;;;;;;15.22;59.21;96824.17;110370;1244;59732;-80
2023/04/03 13:03:31;;;;;;;;;;;;;;;14.97;58.28;96826.53;110511;1241;59750;-80
2023/04/03 13:06:03;;;;;;;;;;;;;;;14.76;59.18;96830.39;110348;1249;70637;-80